Time;durP1;ratioP1;P1;durP2;ratioP2;P2;SDS_P1;SDS_P2;PMS_P1;PMS_P2;Temp;Humidity;BMP_temperature;BMP_pressure;BME280_temperature;BME280_humidity;BME280_pressure;Samples;Min_cycle;Max_cycle;Signal;HPM_P1;HPM_P2
2022/11/20 00:00:34;;;;;;;12.35;7.40;;;5.60;99.90;;;;;;477114;249;27572;-66
2022/11/20 00:02:36;;;;;;;13.55;8.00;;;5.70;99.90;;;;;;477060;249;27487;-64
2022/11/20 00:04:37;;;;;;;8.88;6.97;;;5.70;99.90;;;;;;476997;249;27652;-67
2022/11/20 00:06:38;;;;;;;10.27;6.80;;;5.80;99.90;;;;;;477020;249;27499;-66
2022/11/20 00:08:39;;;;;;;9.30;7.05;;;5.80;99.90;;;;;;477213;249;27580;-64
2022/11/20 00:10:41;;;;;;;9.60;6.75;;;5.80;99.90;;;;;;477238;249;27542;-66
2022/11/20 00:12:42;;;;;;;9.82;7.62;;;5.80;99.90;;;;;;477232;249;27930;-64
2022/11/20 00:14:43;;;;;;;9.32;7.30;;;5.80;99.90;;;;;;477227;249;28034;-67
2022/11/20 00:16:45;;;;;;;9.85;6.60;;;5.80;99.90;;;;;;477210;249;28091;-64
2022/11/20 00:18:46;;;;;;;9.88;7.18;;;5.80;99.90;;;;;;477224;249;27960;-64
2022/11/20 00:20:47;;;;;;;9.55;6.32;;;5.90;99.90;;;;;;477259;249;27581;-66
2022/11/20 00:22:48;;;;;;;12.60;8.00;;;5.90;99.90;;;;;;477221;249;27592;-64
2022/11/20 00:24:50;;;;;;;12.20;8.35;;;5.90;99.90;;;;;;477161;249;27663;-65
2022/11/20 00:26:51;;;;;;;13.80;8.80;;;5.90;99.90;;;;;;477222;249;27552;-64
2022/11/20 00:28:52;;;;;;;10.52;7.95;;;5.90;99.90;;;;;;477223;249;27616;-66
2022/11/20 00:30:53;;;;;;;12.05;8.40;;;5.90;99.90;;;;;;477245;249;27661;-66
2022/11/20 00:32:55;;;;;;;16.15;8.40;;;5.90;99.90;;;;;;477236;249;27946;-65
2022/11/20 00:34:56;;;;;;;10.23;7.87;;;5.90;99.90;;;;;;477237;249;28115;-65
2022/11/20 00:36:57;;;;;;;10.93;7.12;;;5.90;99.90;;;;;;477224;249;27541;-64
2022/11/20 00:38:58;;;;;;;13.20;9.00;;;5.90;99.90;;;;;;477250;249;27565;-65
2022/11/20 00:41:00;;;;;;;14.00;8.45;;;5.90;99.90;;;;;;477245;249;27540;-67
2022/11/20 00:43:01;;;;;;;13.15;8.60;;;5.90;99.90;;;;;;477219;249;27513;-64
2022/11/20 00:45:02;;;;;;;10.20;7.43;;;5.90;99.90;;;;;;477244;249;27633;-65
2022/11/20 00:47:03;;;;;;;12.30;7.87;;;6.00;99.90;;;;;;477236;249;28871;-64
2022/11/20 00:49:05;;;;;;;11.90;8.68;;;6.00;99.90;;;;;;477206;249;28052;-64
2022/11/20 00:51:06;;;;;;;14.32;9.30;;;6.00;99.90;;;;;;477268;249;27550;-65
2022/11/20 00:53:07;;;;;;;10.15;7.93;;;6.00;99.90;;;;;;477222;249;27536;-64
2022/11/20 00:55:08;;;;;;;10.20;8.15;;;6.00;99.90;;;;;;477214;249;27549;-64
2022/11/20 00:57:10;;;;;;;11.90;8.10;;;6.00;99.90;;;;;;477225;249;27511;-64
2022/11/20 00:59:11;;;;;;;11.77;8.45;;;6.00;99.90;;;;;;477249;249;27506;-66
2022/11/20 01:01:12;;;;;;;10.30;7.60;;;6.00;99.90;;;;;;477263;249;27974;-67
2022/11/20 01:03:13;;;;;;;12.55;8.50;;;6.00;99.90;;;;;;477229;249;28046;-66
2022/11/20 01:05:15;;;;;;;10.60;7.45;;;6.00;99.90;;;;;;477244;249;27607;-66
2022/11/20 01:07:16;;;;;;;12.27;7.80;;;6.00;99.90;;;;;;477215;249;27574;-66
2022/11/20 01:09:17;;;;;;;9.70;7.75;;;6.00;99.90;;;;;;477245;249;27544;-66
2022/11/20 01:11:18;;;;;;;11.27;7.93;;;6.00;99.90;;;;;;477217;249;27533;-67
2022/11/20 01:13:38;;;;;;;13.27;7.60;;;6.00;99.90;;;;;;477247;249;27608;-64
2022/11/20 01:15:39;;;;;;;10.40;7.10;;;6.00;99.90;;;;;;477243;249;28172;-65
2022/11/20 01:17:41;;;;;;;12.65;8.43;;;6.00;99.90;;;;;;477235;249;27537;-68
2022/11/20 01:19:42;;;;;;;11.52;7.80;;;6.00;99.90;;;;;;477236;247;27520;-65
2022/11/20 01:21:43;;;;;;;12.60;7.75;;;6.00;99.90;;;;;;477235;249;27620;-67
2022/11/20 01:23:44;;;;;;;14.35;7.32;;;6.00;99.90;;;;;;477213;249;27495;-64
2022/11/20 01:25:46;;;;;;;12.77;7.50;;;6.00;99.90;;;;;;477263;249;27500;-66
2022/11/20 01:27:47;;;;;;;9.13;7.12;;;6.00;99.90;;;;;;477224;249;27670;-65
2022/11/20 01:29:48;;;;;;;10.48;7.15;;;6.00;99.90;;;;;;477231;249;27937;-66
2022/11/20 01:31:49;;;;;;;9.68;7.28;;;6.00;99.90;;;;;;477268;249;28107;-64
2022/11/20 01:33:51;;;;;;;8.95;6.60;;;6.00;99.90;;;;;;477266;249;27476;-63
2022/11/20 01:35:52;;;;;;;10.77;6.78;;;6.00;99.90;;;;;;477264;249;27499;-64
2022/11/20 01:37:53;;;;;;;10.10;6.90;;;6.00;99.90;;;;;;477231;249;27530;-69
2022/11/20 01:39:54;;;;;;;8.68;6.93;;;6.00;99.90;;;;;;477216;249;27671;-66
2022/11/20 01:44:15;;;;;;;10.75;6.85;;;6.00;99.90;;;;;;477222;249;27969;-66
2022/11/20 01:46:16;;;;;;;8.13;6.43;;;6.00;99.90;;;;;;477254;249;27590;-66
2022/11/20 01:48:17;;;;;;;8.38;6.00;;;6.00;99.90;;;;;;477219;249;27618;-67
2022/11/20 01:50:19;;;;;;;8.57;6.50;;;6.00;99.90;;;;;;477233;249;27490;-66
2022/11/20 01:52:20;;;;;;;8.30;5.82;;;6.00;99.90;;;;;;477218;249;27659;-66
2022/11/20 01:54:21;;;;;;;8.38;5.90;;;6.00;99.90;;;;;;477209;249;27619;-66
2022/11/20 01:56:22;;;;;;;7.37;5.43;;;6.00;99.90;;;;;;477258;249;27498;-64
2022/11/20 01:58:24;;;;;;;8.77;6.00;;;6.00;99.90;;;;;;477259;249;27537;-65
2022/11/20 02:00:25;;;;;;;7.07;5.80;;;6.00;99.90;;;;;;477245;249;28001;-64
2022/11/20 02:02:26;;;;;;;7.70;5.60;;;6.00;99.90;;;;;;477223;249;27964;-64
2022/11/20 02:04:27;;;;;;;7.95;6.12;;;6.00;99.90;;;;;;477213;249;27556;-64
2022/11/20 02:06:29;;;;;;;7.87;6.20;;;6.00;99.90;;;;;;477238;249;27582;-66
2022/11/20 02:08:30;;;;;;;9.57;5.97;;;6.00;99.90;;;;;;477250;249;27546;-68
2022/11/20 02:10:31;;;;;;;7.87;6.25;;;6.00;99.90;;;;;;477221;249;27508;-66
2022/11/20 02:14:52;;;;;;;8.45;6.10;;;6.00;99.90;;;;;;477225;249;28106;-66
2022/11/20 02:16:53;;;;;;;7.12;6.00;;;6.00;99.90;;;;;;477222;249;27494;-65
2022/11/20 02:18:54;;;;;;;9.90;6.20;;;6.10;99.90;;;;;;477225;249;27534;-67
2022/11/20 02:20:56;;;;;;;9.60;6.30;;;6.10;99.90;;;;;;477155;249;27493;-65
2022/11/20 02:22:57;;;;;;;9.88;6.90;;;6.10;99.90;;;;;;477215;249;27586;-66
2022/11/20 02:24:58;;;;;;;10.70;7.40;;;6.10;99.90;;;;;;477245;249;27596;-69
2022/11/20 02:26:59;;;;;;;13.60;7.35;;;6.00;99.90;;;;;;477227;249;27507;-66
2022/11/20 02:29:01;;;;;;;11.50;7.45;;;6.10;99.90;;;;;;477215;249;28091;-67
2022/11/20 02:31:02;;;;;;;10.65;7.30;;;6.10;99.90;;;;;;477235;249;27972;-66
2022/11/20 02:33:03;;;;;;;12.00;8.18;;;6.00;99.90;;;;;;477200;249;27543;-65
2022/11/20 02:35:05;;;;;;;10.15;7.28;;;6.10;99.90;;;;;;477278;249;27532;-68
2022/11/20 02:37:06;;;;;;;11.82;8.95;;;6.00;99.90;;;;;;477186;249;27500;-66
2022/11/20 02:39:07;;;;;;;13.32;9.02;;;6.10;99.90;;;;;;477222;249;27566;-66
2022/11/20 02:41:08;;;;;;;11.65;8.13;;;6.10;99.90;;;;;;477200;249;27512;-65
2022/11/20 02:43:09;;;;;;;9.75;7.22;;;6.10;99.90;;;;;;477207;249;27974;-66
2022/11/20 02:45:11;;;;;;;14.48;8.52;;;6.10;99.90;;;;;;477246;249;28143;-67
2022/11/20 02:47:12;;;;;;;11.85;8.07;;;6.10;99.90;;;;;;477227;249;27524;-66
2022/11/20 02:49:13;;;;;;;14.10;8.10;;;6.00;99.90;;;;;;477207;249;27611;-67
2022/11/20 02:51:14;;;;;;;11.43;8.30;;;6.10;99.90;;;;;;477193;249;27592;-66
2022/11/20 02:53:16;;;;;;;11.63;8.20;;;6.10;99.90;;;;;;477233;249;27513;-66
2022/11/20 02:55:17;;;;;;;11.15;7.03;;;6.10;99.90;;;;;;477257;249;27643;-68
2022/11/20 02:57:18;;;;;;;8.85;6.53;;;6.10;99.90;;;;;;477218;249;27952;-66
2022/11/20 02:59:19;;;;;;;10.10;7.30;;;6.10;99.90;;;;;;477228;249;28046;-66
2022/11/20 03:01:21;;;;;;;11.85;7.80;;;6.10;99.90;;;;;;477239;249;27498;-65
2022/11/20 03:03:22;;;;;;;9.07;7.10;;;6.10;99.90;;;;;;477228;249;27643;-66
2022/11/20 03:05:23;;;;;;;10.18;6.78;;;6.10;99.90;;;;;;477255;249;27643;-69
2022/11/20 03:07:24;;;;;;;8.68;7.15;;;6.10;99.90;;;;;;477166;249;27533;-66
2022/11/20 03:09:26;;;;;;;10.25;7.60;;;6.10;99.90;;;;;;477241;249;27564;-66
2022/11/20 03:11:27;;;;;;;9.52;7.10;;;6.10;99.90;;;;;;477210;249;28000;-66
2022/11/20 03:13:28;;;;;;;10.95;6.93;;;6.10;99.90;;;;;;477227;249;28021;-66
2022/11/20 03:15:30;;;;;;;12.88;7.00;;;6.10;99.90;;;;;;477164;249;28026;-68
2022/11/20 03:17:31;;;;;;;8.88;6.55;;;6.10;99.90;;;;;;477253;249;27492;-65
2022/11/20 03:19:32;;;;;;;9.70;6.82;;;6.10;99.90;;;;;;477245;249;27539;-67
2022/11/20 03:21:33;;;;;;;11.88;7.45;;;6.10;99.90;;;;;;477216;249;27592;-66
2022/11/20 03:23:35;;;;;;;7.22;5.78;;;6.10;99.90;;;;;;477258;249;27511;-66
2022/11/20 03:25:36;;;;;;;9.65;6.80;;;6.10;99.90;;;;;;477264;249;27563;-67
2022/11/20 03:27:37;;;;;;;9.43;6.50;;;6.10;99.90;;;;;;477256;249;27989;-66
2022/11/20 03:29:38;;;;;;;9.68;6.12;;;6.10;99.90;;;;;;477222;249;28049;-65
2022/11/20 03:31:42;;;;;;;8.85;6.47;;;6.10;99.90;;;;;;477214;249;28101;-65
2022/11/20 03:33:41;;;;;;;10.95;6.43;;;6.10;99.90;;;;;;476974;249;27519;-65
2022/11/20 03:35:42;;;;;;;8.55;5.97;;;6.10;99.90;;;;;;477246;249;27628;-67
2022/11/20 03:37:45;;;;;;;8.40;6.05;;;6.10;99.90;;;;;;477234;249;27516;-65
2022/11/20 03:39:45;;;;;;;10.02;6.32;;;6.10;99.90;;;;;;477145;249;27614;-67
2022/11/20 03:41:46;;;;;;;10.02;6.62;;;6.10;99.90;;;;;;477246;249;28045;-65
2022/11/20 03:43:47;;;;;;;7.87;6.05;;;6.10;99.90;;;;;;477257;249;28055;-66
2022/11/20 03:45:48;;;;;;;10.73;6.50;;;6.10;99.90;;;;;;477229;249;28008;-67
2022/11/20 03:47:50;;;;;;;7.03;5.65;;;6.10;99.90;;;;;;477238;249;27569;-66
2022/11/20 03:49:51;;;;;;;7.70;5.70;;;6.10;99.90;;;;;;477233;249;27593;-66
2022/11/20 03:51:52;;;;;;;7.60;5.60;;;6.10;99.90;;;;;;477269;249;27577;-66
2022/11/20 03:53:53;;;;;;;10.07;6.57;;;6.20;99.90;;;;;;477298;249;27499;-66
2022/11/20 03:55:55;;;;;;;8.07;5.87;;;6.10;99.90;;;;;;477270;249;27536;-66
2022/11/20 03:57:56;;;;;;;7.53;5.95;;;6.10;99.90;;;;;;477260;249;27561;-66
2022/11/20 03:59:57;;;;;;;7.55;6.25;;;6.10;99.90;;;;;;477227;249;28170;-67
2022/11/20 04:01:58;;;;;;;9.00;6.60;;;6.10;99.90;;;;;;477265;249;28232;-66
2022/11/20 04:04:00;;;;;;;9.77;7.12;;;6.10;99.90;;;;;;477375;249;27590;-65
2022/11/20 04:06:01;;;;;;;8.95;6.50;;;6.10;99.90;;;;;;477247;249;27525;-68
2022/11/20 04:08:02;;;;;;;10.60;7.05;;;6.10;99.90;;;;;;477255;249;27500;-66
2022/11/20 04:10:03;;;;;;;9.30;6.40;;;6.10;99.90;;;;;;477250;249;27983;-66
2022/11/20 04:12:05;;;;;;;8.68;5.68;;;6.10;99.90;;;;;;477259;249;28214;-66
2022/11/20 04:14:06;;;;;;;7.60;5.97;;;6.10;99.90;;;;;;477265;249;28124;-66
2022/11/20 04:16:07;;;;;;;8.35;5.70;;;6.10;99.90;;;;;;477239;249;27592;-66
2022/11/20 04:18:09;;;;;;;7.93;6.47;;;6.10;99.90;;;;;;477245;249;27516;-65
2022/11/20 04:20:10;;;;;;;7.80;5.78;;;6.10;99.90;;;;;;477224;249;27648;-66
2022/11/20 04:22:12;;;;;;;7.85;5.55;;;6.10;99.90;;;;;;477259;249;27630;-65
2022/11/20 04:24:12;;;;;;;7.93;5.37;;;6.10;99.90;;;;;;477208;249;27933;-66
2022/11/20 04:26:14;;;;;;;5.80;4.95;;;6.10;99.90;;;;;;477283;249;27525;-67
2022/11/20 04:28:15;;;;;;;7.50;5.87;;;6.10;99.90;;;;;;477280;249;27948;-66
2022/11/20 04:30:16;;;;;;;6.57;4.65;;;6.10;99.90;;;;;;477256;249;28099;-67
2022/11/20 04:32:17;;;;;;;6.25;4.82;;;6.10;99.90;;;;;;477243;249;27540;-66
2022/11/20 04:34:19;;;;;;;5.53;4.72;;;6.10;99.90;;;;;;477246;249;27596;-66
2022/11/20 04:36:20;;;;;;;6.03;5.18;;;6.10;99.90;;;;;;477251;249;27567;-67
2022/11/20 04:38:21;;;;;;;5.55;5.05;;;6.10;99.90;;;;;;477239;249;27505;-66
2022/11/20 04:40:22;;;;;;;7.62;5.70;;;6.00;99.90;;;;;;477235;249;27543;-66
2022/11/20 04:42:29;;;;;;;6.82;5.55;;;6.00;99.90;;;;;;477209;247;27606;-65
2022/11/20 04:44:31;;;;;;;8.07;5.60;;;6.10;99.90;;;;;;477225;249;27535;-66
2022/11/20 04:46:32;;;;;;;6.43;5.18;;;6.10;99.90;;;;;;477258;249;27598;-67
2022/11/20 04:48:33;;;;;;;5.70;5.10;;;6.10;99.90;;;;;;477253;249;27513;-65
2022/11/20 04:50:34;;;;;;;7.05;4.85;;;6.10;99.90;;;;;;477233;249;27572;-66
2022/11/20 04:52:36;;;;;;;5.65;5.05;;;6.10;99.90;;;;;;477231;249;27987;-65
2022/11/20 04:54:37;;;;;;;5.87;5.20;;;6.10;99.90;;;;;;477209;249;28098;-66
2022/11/20 04:56:38;;;;;;;6.55;4.80;;;6.10;99.90;;;;;;477266;249;28061;-69
2022/11/20 04:58:39;;;;;;;6.65;5.20;;;6.00;99.90;;;;;;477249;249;27485;-66
2022/11/20 05:00:41;;;;;;;6.50;5.32;;;6.10;99.90;;;;;;477247;249;27631;-66
2022/11/20 05:02:42;;;;;;;7.40;5.43;;;6.10;99.90;;;;;;477228;249;27600;-65
2022/11/20 05:04:43;;;;;;;5.18;4.28;;;6.10;99.90;;;;;;477191;249;27526;-66
2022/11/20 05:06:45;;;;;;;4.30;3.90;;;6.10;99.90;;;;;;477248;249;27545;-69
2022/11/20 05:08:46;;;;;;;5.32;3.87;;;6.10;99.90;;;;;;477241;249;27503;-66
2022/11/20 05:10:47;;;;;;;5.00;4.12;;;6.10;99.90;;;;;;477213;249;28050;-68
2022/11/20 05:12:48;;;;;;;7.65;5.07;;;6.10;99.90;;;;;;477242;249;28171;-66
2022/11/20 05:14:50;;;;;;;4.97;4.47;;;6.00;99.90;;;;;;477232;247;27527;-66
2022/11/20 05:16:51;;;;;;;6.93;4.05;;;6.10;99.90;;;;;;477263;249;27644;-68
2022/11/20 05:18:52;;;;;;;4.10;3.70;;;6.10;99.90;;;;;;477246;249;27576;-66
2022/11/20 05:20:53;;;;;;;4.68;4.20;;;6.00;99.90;;;;;;477229;249;27567;-66
2022/11/20 05:22:54;;;;;;;4.75;3.97;;;6.00;99.90;;;;;;477244;249;27499;-66
2022/11/20 05:24:56;;;;;;;5.18;3.92;;;6.10;99.90;;;;;;477219;249;27563;-66
2022/11/20 05:26:57;;;;;;;8.25;3.87;;;6.00;99.90;;;;;;477264;249;28020;-66
2022/11/20 05:28:58;;;;;;;3.83;3.53;;;6.00;99.90;;;;;;477268;249;27981;-66
2022/11/20 05:30:59;;;;;;;3.50;3.20;;;6.10;99.90;;;;;;477234;249;27600;-66
2022/11/20 05:33:01;;;;;;;4.43;3.83;;;6.10;99.90;;;;;;477202;249;27499;-65
2022/11/20 05:35:02;;;;;;;4.15;3.58;;;6.10;99.90;;;;;;477211;249;27545;-65
2022/11/20 05:37:03;;;;;;;3.60;3.28;;;6.10;99.90;;;;;;477263;249;27629;-68
2022/11/20 05:39:05;;;;;;;4.28;3.75;;;6.10;99.90;;;;;;477197;249;27502;-66
2022/11/20 05:41:06;;;;;;;3.35;3.05;;;6.10;99.90;;;;;;477239;249;27606;-66
2022/11/20 05:43:07;;;;;;;3.42;3.12;;;6.10;99.90;;;;;;477231;249;27998;-65
2022/11/20 05:45:08;;;;;;;4.53;2.95;;;6.10;99.90;;;;;;477218;249;28119;-66
2022/11/20 05:47:10;;;;;;;3.35;2.90;;;6.10;99.90;;;;;;477255;249;27547;-69
2022/11/20 05:49:11;;;;;;;3.97;3.20;;;6.10;99.90;;;;;;477217;249;27617;-66
2022/11/20 05:51:12;;;;;;;3.17;2.87;;;6.10;99.90;;;;;;477241;249;27535;-65
2022/11/20 05:53:13;;;;;;;5.45;3.85;;;6.10;99.90;;;;;;477255;249;27521;-66
2022/11/20 05:55:15;;;;;;;4.18;3.78;;;6.10;99.90;;;;;;477275;249;27524;-66
2022/11/20 05:57:16;;;;;;;4.10;3.40;;;6.10;99.90;;;;;;477273;249;27529;-69
2022/11/20 05:59:17;;;;;;;3.83;3.37;;;6.10;99.90;;;;;;477252;249;28026;-66
2022/11/20 06:01:18;;;;;;;4.70;3.70;;;6.10;99.90;;;;;;477258;249;28004;-66
2022/11/20 06:03:20;;;;;;;4.30;3.80;;;6.10;99.90;;;;;;477211;249;28065;-66
2022/11/20 06:05:21;;;;;;;3.10;2.80;;;6.10;99.90;;;;;;477257;249;27500;-65
2022/11/20 06:07:22;;;;;;;3.95;2.83;;;6.10;99.90;;;;;;477238;249;27580;-69
2022/11/20 06:09:23;;;;;;;2.97;2.67;;;6.10;99.90;;;;;;477232;249;27526;-65
2022/11/20 06:11:25;;;;;;;3.47;3.12;;;6.10;99.90;;;;;;477212;249;27544;-66
2022/11/20 06:13:26;;;;;;;3.65;3.35;;;6.10;99.90;;;;;;477213;249;27497;-65
2022/11/20 06:15:27;;;;;;;3.12;2.83;;;6.10;99.90;;;;;;477245;249;27505;-66
2022/11/20 06:17:28;;;;;;;3.80;3.33;;;6.10;99.90;;;;;;477223;249;28100;-68
2022/11/20 06:19:30;;;;;;;3.55;3.25;;;6.10;99.90;;;;;;477234;249;27949;-66
2022/11/20 06:21:31;;;;;;;3.87;2.90;;;6.10;99.90;;;;;;477220;249;27645;-66
2022/11/20 06:23:32;;;;;;;3.30;3.00;;;6.10;99.90;;;;;;477213;249;27530;-65
2022/11/20 06:25:33;;;;;;;3.05;2.75;;;6.10;99.90;;;;;;477223;249;27580;-65
2022/11/20 06:27:35;;;;;;;3.50;3.20;;;6.10;99.90;;;;;;477223;249;27623;-67
2022/11/20 06:29:36;;;;;;;2.95;2.75;;;6.10;99.90;;;;;;477241;249;27575;-65
2022/11/20 06:31:37;;;;;;;2.50;2.30;;;6.10;99.90;;;;;;477200;249;27543;-66
2022/11/20 06:33:38;;;;;;;2.75;2.55;;;6.10;99.90;;;;;;477218;249;28024;-66
2022/11/20 06:35:40;;;;;;;3.35;2.92;;;6.10;99.90;;;;;;477182;249;27964;-66
2022/11/20 06:37:41;;;;;;;2.60;2.40;;;6.10;99.90;;;;;;477167;249;28016;-66
2022/11/20 06:39:42;;;;;;;2.20;2.10;;;6.10;99.90;;;;;;477201;249;27584;-66
2022/11/20 06:41:43;;;;;;;3.12;2.83;;;6.10;99.90;;;;;;477191;249;27540;-65
2022/11/20 06:43:45;;;;;;;2.67;2.47;;;6.10;99.90;;;;;;477237;249;27583;-66
2022/11/20 06:45:46;;;;;;;2.40;2.30;;;6.10;99.90;;;;;;477210;249;27571;-66
2022/11/20 06:47:47;;;;;;;2.50;2.30;;;6.10;99.90;;;;;;477213;249;27534;-66
2022/11/20 06:49:48;;;;;;;3.08;2.87;;;6.10;99.90;;;;;;477210;249;27545;-66
2022/11/20 06:51:50;;;;;;;3.20;2.97;;;6.10;99.90;;;;;;477217;249;27983;-66
2022/11/20 06:53:51;;;;;;;2.67;2.47;;;6.10;99.90;;;;;;477249;249;28099;-66
2022/11/20 06:55:52;;;;;;;2.67;2.47;;;6.10;99.90;;;;;;477266;249;28017;-66
2022/11/20 06:57:53;;;;;;;2.95;2.72;;;6.10;99.90;;;;;;477291;249;27529;-67
2022/11/20 06:59:55;;;;;;;2.50;2.40;;;6.10;99.90;;;;;;477250;249;27499;-66
2022/11/20 07:01:56;;;;;;;2.50;2.30;;;6.10;99.90;;;;;;477257;249;27540;-66
2022/11/20 07:03:57;;;;;;;2.70;2.50;;;6.10;99.90;;;;;;477290;249;27683;-69
2022/11/20 07:05:59;;;;;;;3.00;2.80;;;6.10;99.90;;;;;;477254;249;27549;-66
2022/11/20 07:08:00;;;;;;;2.83;2.62;;;6.10;99.90;;;;;;477253;249;27610;-66
2022/11/20 07:10:01;;;;;;;2.85;2.65;;;6.10;99.90;;;;;;477246;249;27944;-66
2022/11/20 07:12:02;;;;;;;2.40;2.30;;;6.10;99.90;;;;;;477250;249;28011;-66
2022/11/20 07:14:04;;;;;;;2.47;2.30;;;6.10;99.90;;;;;;477275;249;27632;-69
2022/11/20 07:16:05;;;;;;;3.53;3.25;;;6.10;99.90;;;;;;477260;249;27717;-65
2022/11/20 07:18:06;;;;;;;2.50;2.30;;;6.10;99.90;;;;;;477246;249;27568;-66
2022/11/20 07:20:07;;;;;;;2.20;2.03;;;6.10;99.90;;;;;;477257;249;27500;-65
2022/11/20 07:22:09;;;;;;;2.70;2.50;;;6.10;99.90;;;;;;477247;249;27647;-66
2022/11/20 07:24:10;;;;;;;2.42;2.25;;;6.10;99.90;;;;;;477309;249;27896;-69
2022/11/20 07:26:11;;;;;;;2.40;2.20;;;6.10;99.90;;;;;;477294;249;27974;-66
2022/11/20 07:28:13;;;;;;;2.25;2.10;;;6.20;99.90;;;;;;477263;249;28073;-67
2022/11/20 07:30:14;;;;;;;2.17;2.00;;;6.20;99.90;;;;;;477206;249;28054;-66
2022/11/20 07:32:15;;;;;;;2.10;2.00;;;6.20;99.90;;;;;;477241;249;27616;-66
2022/11/20 07:34:16;;;;;;;1.90;1.80;;;6.20;99.90;;;;;;477251;249;27579;-66
2022/11/20 07:36:17;;;;;;;2.87;2.60;;;6.20;99.90;;;;;;477247;249;27495;-65
2022/11/20 07:38:19;;;;;;;3.28;2.60;;;6.20;99.90;;;;;;477261;249;27573;-66
2022/11/20 07:40:20;;;;;;;3.42;2.85;;;6.30;99.90;;;;;;477245;249;27560;-65
2022/11/20 07:42:21;;;;;;;3.22;2.92;;;6.30;99.90;;;;;;477236;249;27986;-66
2022/11/20 07:44:22;;;;;;;5.32;3.28;;;6.30;99.90;;;;;;477274;249;28212;-70
2022/11/20 07:46:24;;;;;;;3.22;2.92;;;6.30;99.90;;;;;;477240;249;28054;-66
2022/11/20 07:48:25;;;;;;;4.97;3.42;;;6.30;99.90;;;;;;477265;249;27624;-67
2022/11/20 07:50:26;;;;;;;3.45;3.15;;;6.30;99.90;;;;;;477241;249;27489;-66
2022/11/20 07:52:27;;;;;;;3.50;3.20;;;6.40;99.90;;;;;;477246;249;27675;-66
2022/11/20 07:54:29;;;;;;;6.15;3.78;;;6.40;99.90;;;;;;477275;249;27629;-69
2022/11/20 07:56:30;;;;;;;4.62;4.22;;;6.40;99.90;;;;;;477258;249;27505;-65
2022/11/20 07:58:32;;;;;;;4.93;4.35;;;6.40;99.90;;;;;;477238;249;28031;-67
2022/11/20 08:00:32;;;;;;;5.37;4.55;;;6.40;99.90;;;;;;477194;249;27942;-65
2022/11/20 08:02:34;;;;;;;4.60;4.20;;;6.50;99.90;;;;;;477238;249;27524;-67
2022/11/20 08:04:35;;;;;;;5.12;4.62;;;6.50;99.90;;;;;;477270;249;27680;-66
2022/11/20 08:06:36;;;;;;;5.65;5.05;;;6.60;99.90;;;;;;477236;249;27510;-66
2022/11/20 08:08:39;;;;;;;5.40;4.90;;;6.60;99.90;;;;;;477250;249;27691;-66
2022/11/20 08:10:39;;;;;;;5.80;5.20;;;6.60;99.90;;;;;;477175;249;27534;-66
2022/11/20 08:14:47;;;;;;;6.20;5.32;;;6.60;99.90;;;;;;468168;249;27643;-67
2022/11/20 08:16:49;;;;;;;5.85;5.35;;;6.60;99.90;;;;;;477269;249;27642;-66
2022/11/20 08:18:50;;;;;;;7.18;5.37;;;6.60;99.90;;;;;;477266;249;27546;-66
2022/11/20 08:20:51;;;;;;;5.65;4.95;;;6.60;99.90;;;;;;477082;249;28179;-66
2022/11/20 08:22:52;;;;;;;6.32;5.65;;;6.60;99.90;;;;;;477050;249;27996;-68
2022/11/20 08:24:54;;;;;;;5.70;4.93;;;6.60;99.90;;;;;;477160;249;28449;-69
2022/11/20 08:26:55;;;;;;;5.53;5.03;;;6.70;99.90;;;;;;476403;249;27969;-67
2022/11/20 08:28:57;;;;;;;7.78;5.12;;;6.70;99.90;;;;;;477383;249;27603;-66
2022/11/20 08:30:58;;;;;;;6.43;5.40;;;6.70;99.90;;;;;;477350;249;28017;-68
2022/11/20 08:33:00;;;;;;;6.07;5.03;;;6.70;99.90;;;;;;477264;249;27507;-66
2022/11/20 08:35:00;;;;;;;5.40;4.90;;;6.70;99.90;;;;;;477208;249;27529;-66
2022/11/20 08:37:02;;;;;;;5.32;4.70;;;6.80;99.90;;;;;;477254;249;28740;-66
2022/11/20 08:39:03;;;;;;;6.43;5.35;;;6.80;99.90;;;;;;477267;249;27593;-66
2022/11/20 08:43:24;;;;;;;6.20;4.93;;;6.80;99.90;;;;;;477232;249;29049;-66
2022/11/20 08:45:25;;;;;;;4.87;4.37;;;6.80;99.90;;;;;;477300;249;27597;-66
2022/11/20 08:47:26;;;;;;;5.93;5.15;;;6.80;99.90;;;;;;477269;249;27550;-68
2022/11/20 08:49:28;;;;;;;6.30;4.95;;;6.80;99.90;;;;;;477253;249;27484;-66
2022/11/20 08:51:29;;;;;;;7.75;5.47;;;6.80;99.90;;;;;;477293;249;27544;-66
2022/11/20 08:53:30;;;;;;;6.93;4.80;;;6.80;99.90;;;;;;477281;249;28045;-65
2022/11/20 08:55:31;;;;;;;6.20;5.05;;;6.80;99.90;;;;;;477280;249;27984;-66
2022/11/20 08:57:33;;;;;;;7.20;5.55;;;6.80;99.90;;;;;;477259;249;28119;-67
2022/11/20 08:59:34;;;;;;;5.47;5.00;;;6.80;99.90;;;;;;477227;249;27625;-66
2022/11/20 09:01:35;;;;;;;6.45;4.82;;;6.80;99.90;;;;;;477237;249;27542;-66
2022/11/20 09:03:36;;;;;;;6.65;5.90;;;6.80;99.90;;;;;;477275;249;27691;-68
2022/11/20 09:05:38;;;;;;;6.85;4.72;;;6.80;99.90;;;;;;477252;249;27547;-66
2022/11/20 09:07:40;;;;;;;5.28;4.80;;;6.70;99.90;;;;;;477210;249;27590;-66
2022/11/20 09:09:40;;;;;;;5.40;4.85;;;6.60;99.90;;;;;;477239;249;28000;-66
2022/11/20 09:11:41;;;;;;;5.47;4.97;;;6.60;99.90;;;;;;477179;249;28109;-66
2022/11/20 09:13:43;;;;;;;5.55;5.05;;;6.60;99.90;;;;;;477284;249;27574;-69
2022/11/20 09:15:44;;;;;;;5.82;4.75;;;6.60;99.90;;;;;;477210;249;27513;-66
2022/11/20 09:17:45;;;;;;;5.87;4.85;;;6.60;99.90;;;;;;477181;249;27675;-66
2022/11/20 09:19:47;;;;;;;5.32;4.65;;;6.70;99.90;;;;;;477249;249;27569;-66
2022/11/20 09:21:48;;;;;;;6.43;4.40;;;6.70;99.90;;;;;;477224;249;27536;-66
2022/11/20 09:23:49;;;;;;;5.45;4.20;;;6.70;99.90;;;;;;477277;249;28142;-69
2022/11/20 09:25:50;;;;;;;5.35;4.85;;;6.70;99.90;;;;;;477250;249;28044;-66
2022/11/20 09:27:51;;;;;;;6.25;4.82;;;6.70;99.90;;;;;;476634;249;47257;-66
2022/11/20 09:29:53;;;;;;;5.53;5.00;;;6.70;99.90;;;;;;477201;249;27588;-68
2022/11/20 09:31:54;;;;;;;6.72;4.78;;;6.70;99.90;;;;;;477218;249;27558;-65
2022/11/20 09:33:56;;;;;;;6.80;5.00;;;6.70;99.90;;;;;;477248;249;27652;-68
2022/11/20 09:35:58;;;;;;;5.43;4.93;;;6.70;99.90;;;;;;477243;249;27541;-67
2022/11/20 09:37:59;;;;;;;4.87;4.32;;;6.70;99.90;;;;;;477248;249;27531;-71
2022/11/20 09:40:00;;;;;;;5.15;4.53;;;6.70;99.90;;;;;;477227;249;27985;-67
2022/11/20 09:42:01;;;;;;;4.72;4.30;;;6.70;99.90;;;;;;477264;249;28289;-67
2022/11/20 09:44:03;;;;;;;5.70;5.00;;;6.70;99.90;;;;;;477256;249;27503;-66
2022/11/20 09:46:04;;;;;;;4.97;4.55;;;6.70;99.90;;;;;;477249;249;27540;-67
2022/11/20 09:48:05;;;;;;;4.72;4.32;;;6.70;99.90;;;;;;477246;249;27503;-65
2022/11/20 09:50:06;;;;;;;5.05;4.57;;;6.70;99.90;;;;;;477191;249;27564;-66
2022/11/20 09:52:08;;;;;;;6.75;4.95;;;6.80;99.90;;;;;;477258;249;27545;-68
2022/11/20 09:54:09;;;;;;;4.80;4.00;;;6.70;99.90;;;;;;477276;249;28167;-66
2022/11/20 09:56:10;;;;;;;4.68;4.28;;;6.80;99.90;;;;;;477255;249;27619;-67
2022/11/20 09:58:12;;;;;;;5.68;4.28;;;6.80;99.90;;;;;;477231;249;27495;-66
2022/11/20 10:00:13;;;;;;;4.22;3.83;;;6.80;99.90;;;;;;477190;249;27576;-66
2022/11/20 10:02:14;;;;;;;4.70;3.67;;;6.80;99.90;;;;;;477268;249;27547;-69
2022/11/20 10:04:15;;;;;;;3.75;3.45;;;6.80;99.90;;;;;;477244;249;27572;-66
2022/11/20 10:06:17;;;;;;;3.65;3.35;;;6.80;99.90;;;;;;477231;249;28089;-67
2022/11/20 10:08:18;;;;;;;4.28;3.87;;;6.80;99.90;;;;;;477196;249;28014;-66
2022/11/20 10:10:19;;;;;;;3.67;3.30;;;6.80;99.90;;;;;;477210;249;27549;-66
2022/11/20 10:12:20;;;;;;;3.75;3.35;;;6.80;99.90;;;;;;477224;249;27654;-69
2022/11/20 10:14:22;;;;;;;3.65;3.30;;;6.80;99.90;;;;;;477226;249;27591;-66
2022/11/20 10:16:23;;;;;;;5.95;3.83;;;6.80;99.90;;;;;;477234;249;27549;-67
2022/11/20 10:18:24;;;;;;;5.40;3.90;;;6.90;99.90;;;;;;477215;249;27644;-65
2022/11/20 10:20:25;;;;;;;4.57;3.83;;;7.00;99.90;;;;;;477252;249;27544;-66
2022/11/20 10:22:27;;;;;;;5.55;3.70;;;7.00;99.90;;;;;;477279;249;28088;-67
2022/11/20 10:24:28;;;;;;;5.85;3.42;;;7.00;99.90;;;;;;477254;249;27500;-65
2022/11/20 10:26:29;;;;;;;5.60;3.65;;;7.00;99.90;;;;;;477227;249;27608;-66
2022/11/20 10:28:30;;;;;;;5.55;4.10;;;7.10;99.90;;;;;;477275;249;27620;-65
2022/11/20 10:30:32;;;;;;;4.55;3.42;;;7.10;99.90;;;;;;477328;249;27507;-65
2022/11/20 10:32:33;;;;;;;3.93;3.60;;;7.20;99.90;;;;;;477283;249;27539;-66
2022/11/20 10:34:34;;;;;;;3.97;2.85;;;7.10;99.90;;;;;;477249;249;28839;-65
2022/11/20 10:36:36;;;;;;;5.10;3.47;;;7.10;99.90;;;;;;477243;249;27997;-66
2022/11/20 10:38:37;;;;;;;4.60;3.15;;;7.10;99.90;;;;;;477226;249;30056;-65
2022/11/20 10:40:38;;;;;;;5.00;3.85;;;7.10;99.90;;;;;;477248;249;27500;-66
2022/11/20 10:42:39;;;;;;;5.65;3.40;;;7.10;99.90;;;;;;477254;249;27668;-69
2022/11/20 10:47:00;;;;;;;5.00;3.40;;;7.20;99.90;;;;;;477238;249;28121;-66
2022/11/20 10:49:01;;;;;;;4.53;3.50;;;7.10;99.90;;;;;;477278;249;28309;-68